createdAt,value
2017-07-25T00:00:28.973Z,90.99
2017-07-25T00:01:09.547Z,91.47
2017-07-25T00:01:50.117Z,91.28
2017-07-25T00:02:30.695Z,92.05
2017-07-25T00:03:11.283Z,90.99
2017-07-25T00:03:51.853Z,91.08
2017-07-25T00:04:32.459Z,91.18
2017-07-25T00:05:13.029Z,91.37
2017-07-25T00:05:53.608Z,91.66
2017-07-25T00:06:34.176Z,91.61
2017-07-25T00:07:14.753Z,91.04
2017-07-25T00:07:55.324Z,91.13
2017-07-25T00:08:35.911Z,91.18
2017-07-25T00:09:16.480Z,91.33
2017-07-25T00:09:57.062Z,91.42
2017-07-25T00:10:37.630Z,91.13
2017-07-25T00:11:18.223Z,91.13
2017-07-25T00:11:58.809Z,91.33
2017-07-25T00:12:39.418Z,91.13
2017-07-25T00:13:19.987Z,91.04
2017-07-25T00:14:00.573Z,90.94
2017-07-25T00:14:41.136Z,91.81
2017-07-25T00:15:21.713Z,92.29
2017-07-25T00:16:02.286Z,92.57
2017-07-25T00:16:42.848Z,92.57
2017-07-25T00:17:23.417Z,92.29
2017-07-25T00:18:03.984Z,92.86
2017-07-25T00:18:44.553Z,92.29
2017-07-25T00:19:25.116Z,92.77
2017-07-25T00:20:05.696Z,92.29
2017-07-25T00:20:46.272Z,92.38
2017-07-25T00:21:26.855Z,92
2017-07-25T00:22:07.415Z,92.57
2017-07-25T00:22:48.000Z,92.19
2017-07-25T00:23:28.581Z,92.77
2017-07-25T00:24:09.147Z,92
2017-07-25T00:24:49.717Z,92.19
2017-07-25T00:25:30.281Z,92.29
2017-07-25T00:26:10.861Z,92.29
2017-07-25T00:26:51.424Z,92.1
2017-07-25T00:27:32.010Z,92.38
2017-07-25T00:28:12.581Z,92.29
2017-07-25T00:28:53.154Z,92.48
2017-07-25T00:29:33.716Z,92.29
2017-07-25T00:30:14.308Z,92.29
2017-07-25T00:30:55.037Z,92.1
2017-07-25T00:31:35.612Z,91.81
2017-07-25T00:32:16.175Z,92.19
2017-07-25T00:32:56.752Z,92.19
2017-07-25T00:33:37.349Z,92.38
2017-07-25T00:34:17.931Z,92.48
2017-07-25T00:34:58.523Z,92.57
2017-07-25T00:35:39.095Z,92.38
2017-07-25T00:36:19.677Z,92.86
2017-07-25T00:37:00.225Z,92.48
2017-07-25T00:37:40.790Z,92.77
2017-07-25T00:38:21.380Z,92.57
2017-07-25T00:39:01.949Z,92.86
2017-07-25T00:39:42.523Z,92.86
2017-07-25T00:40:23.093Z,92.77
2017-07-25T00:41:03.658Z,92.67
2017-07-25T00:41:44.224Z,92.77
2017-07-25T00:42:24.791Z,92.48
2017-07-25T00:43:05.360Z,92.57
2017-07-25T00:43:45.932Z,92.67
2017-07-25T00:44:26.499Z,92.48
2017-07-25T00:45:07.078Z,92.77
2017-07-25T00:45:47.642Z,92.67
2017-07-25T00:46:28.220Z,92.57
2017-07-25T00:47:08.799Z,92.48
2017-07-25T00:47:49.363Z,92.57
2017-07-25T00:48:29.933Z,92.67
2017-07-25T00:49:10.495Z,92.48
2017-07-25T00:49:51.070Z,92.77
2017-07-25T00:50:31.635Z,93.05
2017-07-25T00:51:12.209Z,92.48
2017-07-25T00:51:52.768Z,92.67
2017-07-25T00:52:33.367Z,92.48
2017-07-25T00:53:13.935Z,92.67
2017-07-25T00:53:54.519Z,92.57
2017-07-25T00:54:35.126Z,92.62
2017-07-25T00:55:15.691Z,92.48
2017-07-25T00:55:56.259Z,92.96
2017-07-25T00:56:36.890Z,92.1
2017-07-25T00:57:17.459Z,92.48
2017-07-25T00:57:58.049Z,92.43
2017-07-25T00:58:38.625Z,92.48
2017-07-25T00:59:19.200Z,92.48
2017-07-25T00:59:59.777Z,92.29
2017-07-25T01:00:40.360Z,92.33
2017-07-25T01:01:20.953Z,92.14
2017-07-25T01:02:01.520Z,92
2017-07-25T01:02:42.087Z,92.38
2017-07-25T01:03:22.652Z,92
2017-07-25T01:04:03.226Z,92.14
2017-07-25T01:04:43.797Z,91.71
2017-07-25T01:05:24.376Z,91.42
2017-07-25T01:06:04.966Z,91.81
2017-07-25T01:06:45.554Z,91.81
2017-07-25T01:07:26.134Z,91.42
2017-07-25T01:08:06.705Z,91.61
2017-07-25T01:08:47.277Z,91.81
2017-07-25T01:09:27.850Z,91.9
2017-07-25T01:10:08.428Z,92.29
2017-07-25T01:10:48.989Z,92.29
2017-07-25T01:11:29.562Z,91.81
2017-07-25T01:12:10.129Z,91.71
2017-07-25T01:12:50.705Z,91.33
2017-07-25T01:13:31.277Z,91.61
2017-07-25T01:14:11.843Z,91.71
2017-07-25T01:14:52.429Z,91.61
2017-07-25T01:15:33.018Z,91.81
2017-07-25T01:16:13.601Z,92
2017-07-25T01:16:54.189Z,91.23
2017-07-25T01:17:34.754Z,91.81
2017-07-25T01:18:15.331Z,91.81
2017-07-25T01:18:55.978Z,90.84
2017-07-25T01:19:36.553Z,90.94
2017-07-25T01:20:17.130Z,90.75
2017-07-25T01:20:57.712Z,90.94
2017-07-25T01:21:38.299Z,91.13
2017-07-25T01:22:18.866Z,91.13
2017-07-25T01:22:59.436Z,90.94
2017-07-25T01:23:39.998Z,91.23
2017-07-25T01:24:20.557Z,91.71
2017-07-25T01:25:01.129Z,91.71
2017-07-25T01:25:41.706Z,91.61
2017-07-25T01:26:22.281Z,91.61
2017-07-25T01:27:02.881Z,91.42
2017-07-25T01:27:43.459Z,91.81
2017-07-25T01:28:24.044Z,91.81
2017-07-25T01:29:04.614Z,91.33
2017-07-25T01:29:45.189Z,91.13
2017-07-25T01:30:25.775Z,91.13
2017-07-25T01:31:06.350Z,91.04
2017-07-25T01:31:46.915Z,91.42
2017-07-25T01:32:27.480Z,91.13
2017-07-25T01:33:08.045Z,90.94
2017-07-25T01:33:48.612Z,90.84
2017-07-25T01:34:29.181Z,90.66
2017-07-25T01:35:09.762Z,90.84
2017-07-25T01:35:50.331Z,91.13
2017-07-25T01:36:30.902Z,90.75
2017-07-25T01:37:11.458Z,90.84
2017-07-25T01:37:52.021Z,90.66
2017-07-25T01:38:32.584Z,91.13
2017-07-25T01:39:13.163Z,90.66
2017-07-25T01:39:53.720Z,91.04
2017-07-25T01:40:34.289Z,91.13
2017-07-25T01:41:14.860Z,91.13
2017-07-25T01:41:55.424Z,90.94
2017-07-25T01:42:35.997Z,91.33
2017-07-25T01:43:16.578Z,90.84
2017-07-25T01:43:57.138Z,91.13
2017-07-25T01:44:37.710Z,91.13
2017-07-25T01:45:18.280Z,90.94
2017-07-25T01:45:58.844Z,91.04
2017-07-25T01:46:39.436Z,90.94
2017-07-25T01:47:20.023Z,91.04
2017-07-25T01:48:00.619Z,90.84
2017-07-25T01:48:41.185Z,91.13
2017-07-25T01:49:21.772Z,91.13
2017-07-25T01:50:02.344Z,91.13
2017-07-25T01:50:42.924Z,90.94
2017-07-25T01:51:23.495Z,91.13
2017-07-25T01:52:04.071Z,91.33
2017-07-25T01:52:44.645Z,91.23
2017-07-25T01:53:25.212Z,90.94
2017-07-25T01:54:05.786Z,90.56
2017-07-25T01:54:46.353Z,90.56
2017-07-25T01:55:26.931Z,90.84
2017-07-25T01:56:07.518Z,91.42
2017-07-25T01:56:48.079Z,90.56
2017-07-25T01:57:28.642Z,90.56
2017-07-25T01:58:09.210Z,90.46
2017-07-25T01:58:49.793Z,90.56
2017-07-25T01:59:30.370Z,90.17
2017-07-25T02:00:10.946Z,90.94
2017-07-25T02:00:51.514Z,90.94
2017-07-25T02:01:32.081Z,90.84
2017-07-25T02:02:12.670Z,91.09
2017-07-25T02:02:53.252Z,91.57
2017-07-25T02:03:33.841Z,91.42
2017-07-25T02:04:14.422Z,91.23
2017-07-25T02:04:54.995Z,91.33
2017-07-25T02:05:35.568Z,91.52
2017-07-25T02:06:16.139Z,91.81
2017-07-25T02:06:56.713Z,91.61
2017-07-25T02:07:37.282Z,91.57
2017-07-25T02:08:17.857Z,91.47
2017-07-25T02:08:58.431Z,91.42
2017-07-25T02:09:39.010Z,91.81
2017-07-25T02:10:19.582Z,91.42
2017-07-25T02:11:00.145Z,91.9
2017-07-25T02:11:40.726Z,91.81
2017-07-25T02:12:21.325Z,91.33
2017-07-25T02:13:01.895Z,91.33
2017-07-25T02:13:42.466Z,91.81
2017-07-25T02:14:23.032Z,92
2017-07-25T02:15:03.617Z,91.81
2017-07-25T02:15:44.197Z,92
2017-07-25T02:16:24.775Z,91.81
2017-07-25T02:17:05.344Z,92.19
2017-07-25T02:17:45.911Z,92.19
2017-07-25T02:18:26.497Z,92
2017-07-25T02:19:07.083Z,91.52
2017-07-25T02:19:47.653Z,92
2017-07-25T02:20:28.227Z,92.48
2017-07-25T02:21:08.810Z,92.29
2017-07-25T02:21:49.382Z,91.81
2017-07-25T02:22:29.948Z,91.52
2017-07-25T02:23:10.529Z,91.9
2017-07-25T02:23:51.095Z,92
2017-07-25T02:24:31.667Z,91.61
2017-07-25T02:25:12.238Z,92.29
2017-07-25T02:25:52.800Z,92.1
2017-07-25T02:26:33.391Z,92.19
2017-07-25T02:27:13.965Z,91.81
2017-07-25T02:27:54.561Z,92
2017-07-25T02:28:35.140Z,92.29
2017-07-25T02:29:15.729Z,92.29
2017-07-25T02:29:56.310Z,92
2017-07-25T02:30:36.897Z,92
2017-07-25T02:31:17.513Z,92.29
2017-07-25T02:31:58.096Z,92.29
2017-07-25T02:32:38.672Z,91.42
2017-07-25T02:33:19.249Z,91.61
2017-07-25T02:33:59.864Z,91.9
2017-07-25T02:34:40.438Z,92
2017-07-25T02:35:21.011Z,91.61
2017-07-25T02:36:01.582Z,91.42
2017-07-25T02:36:42.161Z,91.42
2017-07-25T02:37:22.734Z,90.7
2017-07-25T02:38:03.323Z,90.8
2017-07-25T02:38:43.892Z,90.84
2017-07-25T02:39:24.470Z,90.99
2017-07-25T02:40:05.042Z,90.9
2017-07-25T02:40:45.624Z,90.99
2017-07-25T02:41:26.180Z,90.99
2017-07-25T02:42:06.753Z,91.28
2017-07-25T02:42:47.315Z,91.28
2017-07-25T02:43:27.889Z,91.38
2017-07-25T02:44:08.469Z,91.09
2017-07-25T02:44:49.033Z,91.09
2017-07-25T02:45:29.605Z,90.8
2017-07-25T02:46:10.164Z,90.9
2017-07-25T02:46:50.739Z,91.09
2017-07-25T02:47:31.309Z,90.99
2017-07-25T02:48:11.890Z,91.66
2017-07-25T02:48:52.444Z,91.76
2017-07-25T02:49:33.014Z,92.05
2017-07-25T02:50:13.584Z,91.57
2017-07-25T02:50:54.148Z,91.66
2017-07-25T02:51:34.729Z,91.57
2017-07-25T02:52:15.331Z,91.76
2017-07-25T02:52:55.907Z,91.96
2017-07-25T02:53:36.479Z,91.96
2017-07-25T02:54:17.050Z,91.76
2017-07-25T02:54:57.633Z,91.66
2017-07-25T02:55:38.211Z,91.57
2017-07-25T02:56:18.784Z,91.38
2017-07-25T02:56:59.491Z,91.47
2017-07-25T02:57:40.071Z,91.38
2017-07-25T02:58:20.648Z,91.76
2017-07-25T02:59:01.216Z,91.28
2017-07-25T02:59:41.794Z,91.28
2017-07-25T03:00:22.386Z,91.28
2017-07-25T03:01:02.956Z,91.19
2017-07-25T03:01:43.516Z,90.99
2017-07-25T03:02:24.095Z,90.9
2017-07-25T03:03:04.688Z,90.9
2017-07-25T03:03:45.254Z,90.99
2017-07-25T03:04:25.826Z,90.8
2017-07-25T03:05:06.399Z,91.28
2017-07-25T03:05:46.967Z,90.99
2017-07-25T03:06:27.535Z,91.47
2017-07-25T03:07:08.117Z,91.57
2017-07-25T03:07:48.676Z,91.28
2017-07-25T03:08:29.249Z,91.57
2017-07-25T03:09:09.837Z,91.57
2017-07-25T03:09:50.416Z,91.66
2017-07-25T03:10:30.994Z,91.47
2017-07-25T03:11:11.565Z,91.47
2017-07-25T03:11:52.130Z,91.76
2017-07-25T03:12:32.744Z,91.57
2017-07-25T03:13:13.361Z,91.66
2017-07-25T03:13:53.930Z,91.86
2017-07-25T03:14:34.492Z,91.57
2017-07-25T03:15:15.066Z,91.47
2017-07-25T03:15:55.633Z,91.66
2017-07-25T03:16:36.198Z,91.96
2017-07-25T03:17:16.779Z,91.28
2017-07-25T03:17:57.347Z,92.05
2017-07-25T03:18:37.930Z,91.66
2017-07-25T03:19:18.502Z,91.66
2017-07-25T03:19:59.073Z,91.76
2017-07-25T03:20:39.643Z,92.43
2017-07-25T03:21:20.233Z,92.33
2017-07-25T03:22:00.792Z,92.43
2017-07-25T03:22:41.362Z,92.24
2017-07-25T03:23:21.928Z,92.14
2017-07-25T03:24:02.522Z,92.14
2017-07-25T03:24:43.124Z,91.96
2017-07-25T03:25:23.686Z,92.82
2017-07-25T03:26:04.253Z,92.72
2017-07-25T03:26:44.837Z,92.24
2017-07-25T03:27:25.555Z,92.14
2017-07-25T03:28:06.159Z,91.76
2017-07-25T03:28:46.736Z,92.33
2017-07-25T03:29:27.320Z,92.24
2017-07-25T03:30:07.911Z,91.66
2017-07-25T03:30:48.478Z,91.57
2017-07-25T03:31:29.076Z,91.76
2017-07-25T03:32:09.630Z,91.19
2017-07-25T03:32:50.200Z,91.09
2017-07-25T03:33:30.783Z,91.66
2017-07-25T03:34:11.369Z,91.96
2017-07-25T03:34:51.953Z,91.86
2017-07-25T03:35:32.522Z,91.96
2017-07-25T03:36:13.090Z,91.86
2017-07-25T03:36:53.674Z,92.14
2017-07-25T03:37:34.248Z,91.76
2017-07-25T03:38:14.824Z,92.33
2017-07-25T03:38:55.393Z,92.24
2017-07-25T03:39:35.980Z,92.24
2017-07-25T03:40:16.541Z,91.76
2017-07-25T03:40:57.117Z,91.57
2017-07-25T03:41:37.697Z,92.43
2017-07-25T03:42:18.280Z,92.24
2017-07-25T03:42:58.875Z,91.66
2017-07-25T03:43:39.484Z,92.05
2017-07-25T03:44:20.069Z,91.86
2017-07-25T03:45:00.664Z,91.28
2017-07-25T03:45:41.253Z,91.76
2017-07-25T03:46:21.838Z,91.57
2017-07-25T03:47:02.443Z,91.86
2017-07-25T03:47:43.001Z,91.76
2017-07-25T03:48:23.583Z,91.66
2017-07-25T03:49:04.159Z,91.66
2017-07-25T03:49:44.748Z,91.28
2017-07-25T03:50:25.339Z,92.24
2017-07-25T03:51:05.943Z,92.24
2017-07-25T03:51:46.515Z,92.14
2017-07-25T03:52:27.093Z,92.05
2017-07-25T03:53:07.702Z,92.33
2017-07-25T03:53:48.272Z,92.63
2017-07-25T03:54:28.862Z,92.63
2017-07-25T03:55:09.423Z,92.05
2017-07-25T03:55:50.010Z,92.33
2017-07-25T03:56:30.573Z,91.86
2017-07-25T03:57:11.149Z,91.57
2017-07-25T03:57:51.832Z,91.76
2017-07-25T03:58:32.415Z,91.66
2017-07-25T03:59:12.978Z,91.76
2017-07-25T03:59:53.562Z,91.76
2017-07-25T04:00:34.113Z,92.43
2017-07-25T04:01:14.686Z,92.19
2017-07-25T04:01:55.256Z,92.24
2017-07-25T04:02:35.832Z,92.33
2017-07-25T04:03:16.396Z,91.96
2017-07-25T04:03:56.973Z,92.1
2017-07-25T04:04:37.542Z,92.48
2017-07-25T04:05:18.127Z,92.68
2017-07-25T04:05:58.685Z,92.82
2017-07-25T04:06:39.265Z,92.24
2017-07-25T04:07:19.841Z,92.05
2017-07-25T04:08:00.433Z,92.1
2017-07-25T04:08:41.028Z,92.68
2017-07-25T04:09:21.630Z,92.29
2017-07-25T04:10:02.202Z,92.29
2017-07-25T04:10:42.774Z,92.43
2017-07-25T04:11:23.347Z,92.43
2017-07-25T04:12:03.926Z,92.58
2017-07-25T04:12:44.535Z,92.58
2017-07-25T04:13:25.105Z,92.48
2017-07-25T04:14:05.734Z,92.53
2017-07-25T04:14:46.348Z,92.43
2017-07-25T04:15:26.909Z,92.53
2017-07-25T04:16:07.494Z,92.39
2017-07-25T04:16:48.075Z,92.39
2017-07-25T04:17:28.639Z,92.58
2017-07-25T04:18:09.452Z,92.58
2017-07-25T04:18:50.019Z,92.19
2017-07-25T04:19:30.608Z,92.39
2017-07-25T04:20:11.202Z,92.1
2017-07-25T04:20:51.778Z,92
2017-07-25T04:21:32.352Z,92.68
2017-07-25T04:22:12.924Z,92.19
2017-07-25T04:22:53.489Z,92.19
2017-07-25T04:23:34.073Z,92.68
2017-07-25T04:24:14.635Z,92.58
2017-07-25T04:24:55.221Z,92.48
2017-07-25T04:25:35.790Z,92.48
2017-07-25T04:26:16.369Z,92.58
2017-07-25T04:26:56.939Z,92.19
2017-07-25T04:27:37.518Z,92.29
2017-07-25T04:28:18.089Z,93.06
2017-07-25T04:28:58.660Z,92.86
2017-07-25T04:29:39.239Z,93.1
2017-07-25T04:30:19.816Z,92.53
2017-07-25T04:31:00.387Z,92.72
2017-07-25T04:31:40.961Z,92.82
2017-07-25T04:32:21.545Z,91.86
2017-07-25T04:33:02.108Z,91.33
2017-07-25T04:33:42.669Z,91.38
2017-07-25T04:34:23.257Z,90.94
2017-07-25T04:35:03.821Z,90.46
2017-07-25T04:35:44.395Z,90.66
2017-07-25T04:36:24.991Z,90.46
2017-07-25T04:37:05.586Z,90.37
2017-07-25T04:37:46.202Z,89.89
2017-07-25T04:38:26.772Z,89.6
2017-07-25T04:39:07.349Z,88.93
2017-07-25T04:39:47.939Z,88.83
2017-07-25T04:40:28.529Z,88.64
2017-07-25T04:41:09.109Z,89.12
2017-07-25T04:41:49.695Z,89.12
2017-07-25T04:42:30.281Z,88.16
2017-07-25T04:43:10.843Z,88.64
2017-07-25T04:43:51.417Z,88.35
2017-07-25T04:44:31.996Z,88.45
2017-07-25T04:45:12.585Z,88.45
2017-07-25T04:45:53.146Z,87.96
2017-07-25T04:46:33.727Z,88.3
2017-07-25T04:47:14.317Z,88.2
2017-07-25T04:47:54.885Z,88.25
2017-07-25T04:48:35.470Z,88.06
2017-07-25T04:49:16.072Z,87.92
2017-07-25T04:49:56.638Z,88.3
2017-07-25T04:50:37.218Z,88.01
2017-07-25T04:51:17.822Z,88.2
2017-07-25T04:51:58.403Z,86.85
2017-07-25T04:52:38.975Z,87.15
2017-07-25T04:53:19.562Z,87.43
2017-07-25T04:54:00.166Z,87.53
2017-07-25T04:54:40.785Z,87.82
2017-07-25T04:55:21.339Z,85.99
2017-07-25T04:56:01.907Z,86.18
2017-07-25T04:56:42.479Z,86.57
2017-07-25T04:57:23.046Z,86.95
2017-07-25T04:58:03.638Z,86.95
2017-07-25T04:58:44.231Z,86.76
2017-07-25T04:59:24.867Z,87.15
2017-07-25T05:00:05.427Z,86.76
2017-07-25T05:00:46.062Z,86.95
2017-07-25T05:01:26.651Z,86.57
2017-07-25T05:02:07.246Z,85.8
2017-07-25T05:02:47.838Z,86.04
2017-07-25T05:03:28.429Z,85.89
2017-07-25T05:04:09.041Z,86.13
2017-07-25T05:04:49.653Z,86.09
2017-07-25T05:05:30.234Z,85.89
2017-07-25T05:06:10.862Z,85.65
2017-07-25T05:06:51.440Z,85.27
2017-07-25T05:07:32.014Z,84.64
2017-07-25T05:08:12.627Z,84.98
2017-07-25T05:08:53.188Z,84.59
2017-07-25T05:09:33.811Z,85.07
2017-07-25T05:10:14.400Z,84.69
2017-07-25T05:10:54.960Z,84.69
2017-07-25T05:11:35.545Z,84.88
2017-07-25T05:12:16.104Z,84.4
2017-07-25T05:12:56.667Z,84.88
2017-07-25T05:13:37.248Z,84.78
2017-07-25T05:14:17.822Z,84.21
2017-07-25T05:14:58.428Z,84.3
2017-07-25T05:15:38.995Z,84.5
2017-07-25T05:16:19.591Z,83.44
2017-07-25T05:17:00.172Z,84.4
2017-07-25T05:17:40.757Z,84.3
2017-07-25T05:18:21.333Z,84.5
2017-07-25T05:19:01.910Z,84.69
2017-07-25T05:19:42.483Z,84.21
2017-07-25T05:20:23.069Z,84.59
2017-07-25T05:21:03.671Z,84.69
2017-07-25T05:21:44.276Z,84.5
2017-07-25T05:22:24.847Z,84.69
2017-07-25T05:23:05.422Z,84.69
2017-07-25T05:23:46.007Z,84.55
2017-07-25T05:24:26.651Z,84.78
2017-07-25T05:25:07.231Z,84.59
2017-07-25T05:25:47.826Z,84.69
2017-07-25T05:26:28.404Z,84.88
2017-07-25T05:27:08.969Z,84.5
2017-07-25T05:27:49.579Z,83.83
2017-07-25T05:28:30.148Z,84.11
2017-07-25T05:29:10.724Z,84.11
2017-07-25T05:29:51.303Z,84.4
2017-07-25T05:30:31.899Z,84.4
2017-07-25T05:31:12.462Z,84.5
2017-07-25T05:31:53.031Z,84.11
2017-07-25T05:32:33.622Z,84.11
2017-07-25T05:33:14.218Z,84.11
2017-07-25T05:33:54.785Z,83.53
2017-07-25T05:34:35.381Z,83.44
2017-07-25T05:35:15.954Z,83.73
2017-07-25T05:35:56.535Z,83.53
2017-07-25T05:36:37.097Z,83.34
2017-07-25T05:37:17.689Z,84.21
2017-07-25T05:37:58.271Z,83.25
2017-07-25T05:38:38.841Z,83.53
2017-07-25T05:39:19.401Z,83.63
2017-07-25T05:40:00.018Z,84.11
2017-07-25T05:40:40.608Z,83.34
2017-07-25T05:41:21.182Z,83.59
2017-07-25T05:42:01.772Z,84.07
2017-07-25T05:42:42.398Z,84.3
2017-07-25T05:43:22.970Z,84.45
2017-07-25T05:44:03.564Z,84.55
2017-07-25T05:44:44.137Z,85.07
2017-07-25T05:45:24.711Z,84.45
2017-07-25T05:46:05.296Z,84.36
2017-07-25T05:46:46.011Z,84.45
2017-07-25T05:47:26.584Z,84.17
2017-07-25T05:48:07.166Z,84.07
2017-07-25T05:48:47.745Z,84.07
2017-07-25T05:49:28.347Z,84.55
2017-07-25T05:50:08.921Z,84.55
2017-07-25T05:50:49.537Z,84.26
2017-07-25T05:51:30.116Z,84.3
2017-07-25T05:52:10.713Z,84.07
2017-07-25T05:52:51.298Z,84.36
2017-07-25T05:53:31.865Z,84.17
2017-07-25T05:54:12.448Z,84.21
2017-07-25T05:54:53.031Z,84.45
2017-07-25T05:55:33.601Z,84.17
2017-07-25T05:56:14.185Z,84.17
2017-07-25T05:56:54.809Z,83.4
2017-07-25T05:57:35.391Z,84.26
2017-07-25T05:58:16.043Z,84.36
2017-07-25T05:58:56.663Z,84.26
2017-07-25T05:59:37.242Z,84.36
2017-07-25T06:00:17.842Z,83.97
2017-07-25T06:00:58.458Z,84.26
2017-07-25T06:01:39.060Z,84.36
2017-07-25T06:02:19.647Z,84.26
2017-07-25T06:03:00.211Z,84.55
2017-07-25T06:03:40.780Z,84.74
2017-07-25T06:04:21.354Z,84.74
2017-07-25T06:05:01.917Z,84.74
2017-07-25T06:05:42.471Z,84.94
2017-07-25T06:06:23.039Z,84.07
2017-07-25T06:07:03.613Z,84.36
2017-07-25T06:07:44.186Z,84.64
2017-07-25T06:08:24.760Z,84.64
2017-07-25T06:09:05.331Z,84.45
2017-07-25T06:09:45.898Z,84.17
2017-07-25T06:10:26.472Z,84.07
2017-07-25T06:11:07.048Z,84.07
2017-07-25T06:11:47.632Z,84.55
2017-07-25T06:12:28.304Z,84.45
2017-07-25T06:13:09.099Z,84.17
2017-07-25T06:13:50.236Z,84.07
2017-07-25T06:14:30.827Z,83.2
2017-07-25T06:15:11.415Z,83.87
2017-07-25T06:15:51.964Z,83.69
2017-07-25T06:16:32.534Z,84.45
2017-07-25T06:17:13.114Z,84.26
2017-07-25T06:17:53.697Z,84.36
2017-07-25T06:18:34.247Z,84.45
2017-07-25T06:19:14.829Z,84.45
2017-07-25T06:19:55.392Z,84.45
2017-07-25T06:20:36.002Z,84.4
2017-07-25T06:21:16.591Z,83.3
2017-07-25T06:21:57.163Z,83.3
2017-07-25T06:22:37.732Z,83.59
2017-07-25T06:23:18.304Z,83.01
2017-07-25T06:23:58.877Z,83.59
2017-07-25T06:24:39.483Z,84.17
2017-07-25T06:25:20.047Z,83.78
2017-07-25T06:26:00.624Z,84.17
2017-07-25T06:26:41.182Z,84.45
2017-07-25T06:27:21.746Z,84.07
2017-07-25T06:28:02.315Z,84.26
2017-07-25T06:28:42.925Z,84.84
2017-07-25T06:29:23.488Z,84.74
2017-07-25T06:30:04.062Z,85.13
2017-07-25T06:30:44.646Z,85.32
2017-07-25T06:31:25.227Z,84.94
2017-07-25T06:32:05.791Z,84.26
2017-07-25T06:32:46.363Z,84.45
2017-07-25T06:33:26.946Z,84.07
2017-07-25T06:34:07.519Z,84.84
2017-07-25T06:34:48.085Z,84.55
2017-07-25T06:35:28.654Z,85.22
2017-07-25T06:36:09.222Z,85.32
2017-07-25T06:36:49.846Z,84.94
2017-07-25T06:37:30.418Z,84.22
2017-07-25T06:38:10.989Z,84.41
2017-07-25T06:38:51.558Z,84.51
2017-07-25T06:39:32.136Z,84.7
2017-07-25T06:40:12.704Z,85.37
2017-07-25T06:40:53.292Z,85.18
2017-07-25T06:41:33.870Z,85.66
2017-07-25T06:42:14.453Z,85.51
2017-07-25T06:42:55.001Z,84.89
2017-07-25T06:43:35.587Z,84.22
2017-07-25T06:44:16.172Z,84.31
2017-07-25T06:44:56.740Z,84.45
2017-07-25T06:45:37.319Z,84.51
2017-07-25T06:46:17.919Z,84.31
2017-07-25T06:46:58.492Z,84.6
2017-07-25T06:47:39.062Z,84.89
2017-07-25T06:48:19.619Z,84.6
2017-07-25T06:49:00.182Z,84.51
2017-07-25T06:49:40.776Z,85.37
2017-07-25T06:50:21.346Z,85.28
2017-07-25T06:51:01.916Z,85.18
2017-07-25T06:51:42.504Z,85.28
2017-07-25T06:52:23.089Z,85.28
2017-07-25T06:53:03.678Z,85.08
2017-07-25T06:53:44.254Z,84.03
2017-07-25T06:54:24.866Z,84.03
2017-07-25T06:55:05.451Z,84.31
2017-07-25T06:55:46.047Z,85.18
2017-07-25T06:56:26.599Z,84.7
2017-07-25T06:57:07.184Z,85.28
2017-07-25T06:57:47.790Z,84.51
2017-07-25T06:58:28.364Z,84.51
2017-07-25T06:59:08.934Z,84.41
2017-07-25T06:59:49.530Z,84.51
2017-07-25T07:00:30.096Z,84.45
2017-07-25T07:01:10.695Z,84.31
2017-07-25T07:01:51.291Z,84.41
2017-07-25T07:02:31.867Z,84.03
2017-07-25T07:03:12.440Z,84.17
2017-07-25T07:03:53.072Z,84.12
2017-07-25T07:04:33.640Z,84.03
2017-07-25T07:05:14.232Z,83.36
2017-07-25T07:05:54.829Z,84.22
2017-07-25T07:06:35.405Z,83.36
2017-07-25T07:07:15.975Z,84.22
2017-07-25T07:07:56.562Z,84.31
2017-07-25T07:08:37.156Z,84.22
2017-07-25T07:09:17.705Z,84.31
2017-07-25T07:09:58.271Z,84.22
2017-07-25T07:10:38.865Z,84.03
2017-07-25T07:11:19.644Z,84.22
2017-07-25T07:12:00.232Z,84.22
2017-07-25T07:12:40.809Z,84.51
2017-07-25T07:13:21.373Z,84.51
2017-07-25T07:14:01.968Z,84.51
2017-07-25T07:14:42.550Z,84.22
2017-07-25T07:15:23.135Z,84.6
2017-07-25T07:16:03.712Z,83.74
2017-07-25T07:16:44.294Z,83.45
2017-07-25T07:17:24.874Z,83.59
2017-07-25T07:18:05.474Z,83.3
2017-07-25T07:18:46.054Z,84.22
2017-07-25T07:19:26.636Z,83.87
2017-07-25T07:20:07.223Z,83.36
2017-07-25T07:20:47.819Z,83.54
2017-07-25T07:21:28.413Z,83.16
2017-07-25T07:22:08.999Z,83.74
2017-07-25T07:22:49.584Z,83.84
2017-07-25T07:23:30.157Z,83.36
2017-07-25T07:24:10.724Z,83.45
2017-07-25T07:24:51.295Z,83.54
2017-07-25T07:25:31.863Z,84.03
2017-07-25T07:26:12.438Z,84.22
2017-07-25T07:26:53.020Z,84.03
2017-07-25T07:27:33.600Z,83.2
2017-07-25T07:28:14.171Z,83.3
2017-07-25T07:28:54.741Z,83.45
2017-07-25T07:29:35.314Z,83.54
2017-07-25T07:30:15.886Z,83.36
2017-07-25T07:30:56.463Z,83.54
2017-07-25T07:31:37.056Z,83.84
2017-07-25T07:32:17.645Z,84.03
2017-07-25T07:32:58.239Z,84.31
2017-07-25T07:33:38.824Z,84.22
2017-07-25T07:34:19.406Z,83.74
2017-07-25T07:34:59.971Z,83.54
2017-07-25T07:35:40.543Z,83.36
2017-07-25T07:36:21.122Z,83.59
2017-07-25T07:37:01.696Z,83.78
2017-07-25T07:37:42.276Z,82.24
2017-07-25T07:38:22.849Z,83.11
2017-07-25T07:39:03.419Z,83.11
2017-07-25T07:39:43.986Z,82.43
2017-07-25T07:40:24.559Z,82.73
2017-07-25T07:41:05.139Z,83.16
2017-07-25T07:41:45.711Z,83.3
2017-07-25T07:42:26.298Z,83.2
2017-07-25T07:43:06.877Z,83.01
2017-07-25T07:43:47.445Z,83.4
2017-07-25T07:44:28.018Z,83.69
2017-07-25T07:45:08.603Z,83.49
2017-07-25T07:45:49.168Z,83.3
2017-07-25T07:46:29.773Z,83.2
2017-07-25T07:47:10.337Z,83.59
2017-07-25T07:47:50.898Z,83.11
2017-07-25T07:48:31.476Z,83.11
2017-07-25T07:49:12.055Z,83.49
2017-07-25T07:49:52.636Z,83.59
2017-07-25T07:50:33.206Z,83.3
2017-07-25T07:51:13.817Z,83.2
2017-07-25T07:51:54.405Z,83.49
2017-07-25T07:52:34.984Z,83.87
2017-07-25T07:53:15.590Z,83.3
2017-07-25T07:53:56.169Z,82.92
2017-07-25T07:54:36.741Z,83.11
2017-07-25T07:55:17.329Z,83.3
2017-07-25T07:55:57.932Z,81.76
2017-07-25T07:56:38.497Z,81.82
2017-07-25T07:57:19.086Z,82.68
2017-07-25T07:57:59.666Z,83.07
2017-07-25T07:58:40.258Z,82.97
2017-07-25T07:59:20.834Z,83.16
2017-07-25T08:00:01.444Z,83.11
2017-07-25T08:00:42.037Z,83.26
2017-07-25T08:01:22.620Z,83.07
2017-07-25T08:02:03.231Z,82.63
2017-07-25T08:02:43.814Z,82.1
2017-07-25T08:03:24.397Z,82.4
2017-07-25T08:04:04.960Z,82.59
2017-07-25T08:04:45.539Z,82.4
2017-07-25T08:05:26.118Z,82.4
2017-07-25T08:06:06.684Z,83.26
2017-07-25T08:06:47.253Z,82.49
2017-07-25T08:07:27.821Z,82.68
2017-07-25T08:08:08.405Z,83.26
2017-07-25T08:08:48.948Z,83.45
2017-07-25T08:09:29.561Z,83.26
2017-07-25T08:10:10.144Z,82.97
2017-07-25T08:10:50.751Z,81.82
2017-07-25T08:11:31.320Z,81.43
2017-07-25T08:12:11.905Z,81.34
2017-07-25T08:12:52.571Z,82.01
2017-07-25T08:13:33.159Z,82.3
2017-07-25T08:14:13.897Z,82.68
2017-07-25T08:14:54.475Z,82.2
2017-07-25T08:15:35.035Z,82.49
2017-07-25T08:16:15.615Z,81.72
2017-07-25T08:16:56.211Z,81.92
2017-07-25T08:17:36.792Z,82.54
2017-07-25T08:18:17.375Z,83.12
2017-07-25T08:18:58.048Z,83.31
2017-07-25T08:19:38.633Z,82.45
2017-07-25T08:20:19.202Z,82.35
2017-07-25T08:20:59.811Z,82.26
2017-07-25T08:21:40.397Z,82.35
2017-07-25T08:22:21.012Z,83.03
2017-07-25T08:23:01.589Z,83.12
2017-07-25T08:23:42.154Z,83.22
2017-07-25T08:24:22.733Z,83.03
2017-07-25T08:25:03.318Z,82.74
2017-07-25T08:25:43.895Z,83.03
2017-07-25T08:26:24.474Z,82.74
2017-07-25T08:27:05.052Z,82.45
2017-07-25T08:27:45.648Z,82.45
2017-07-25T08:28:26.285Z,83.12
2017-07-25T08:29:06.863Z,83.22
2017-07-25T08:29:47.451Z,83.12
2017-07-25T08:30:28.131Z,83.6
2017-07-25T08:31:08.705Z,83.41
2017-07-25T08:31:49.272Z,83.51
2017-07-25T08:32:29.857Z,83.89
2017-07-25T08:33:10.462Z,83.98
2017-07-25T08:33:51.025Z,83.8
2017-07-25T08:34:31.591Z,83.31
2017-07-25T08:35:12.190Z,83.22
2017-07-25T08:35:52.776Z,83.6
2017-07-25T08:36:33.384Z,83.41
2017-07-25T08:37:13.970Z,83.31
2017-07-25T08:37:54.539Z,83.54
2017-07-25T08:38:35.174Z,83.26
2017-07-25T08:39:15.754Z,83.36
2017-07-25T08:39:56.344Z,82.49
2017-07-25T08:40:36.931Z,82.78
2017-07-25T08:41:17.505Z,82.78
2017-07-25T08:41:58.088Z,82.59
2017-07-25T08:42:38.685Z,82.1
2017-07-25T08:43:19.301Z,82.49
2017-07-25T08:43:59.999Z,82.78
2017-07-25T08:44:40.651Z,83.16
2017-07-25T08:45:21.236Z,83.16